createdAt,value
2022-11-14T00:04:47.217Z,4.60
2022-11-14T00:09:48.808Z,4.29
2022-11-14T00:14:50.285Z,4.30
2022-11-14T00:19:51.746Z,4.37
2022-11-14T00:24:53.272Z,4.27
2022-11-14T00:29:54.777Z,4.35
2022-11-14T00:34:56.253Z,4.30
2022-11-14T00:39:57.709Z,4.34
2022-11-14T00:44:59.154Z,4.42
2022-11-14T00:50:00.706Z,4.11
2022-11-14T00:55:02.200Z,4.12
2022-11-14T01:00:04.785Z,4.35
2022-11-14T01:05:06.579Z,4.41
2022-11-14T01:10:08.737Z,4.31
2022-11-14T01:15:10.619Z,4.08
2022-11-14T01:20:12.039Z,4.10
2022-11-14T01:25:13.443Z,4.08
2022-11-14T01:30:15.100Z,3.93
2022-11-14T01:35:16.711Z,4.34
2022-11-14T01:40:20.734Z,4.13
2022-11-14T01:45:57.921Z,4.27
2022-11-14T01:51:12.226Z,4.20
2022-11-14T01:56:17.357Z,4.24
2022-11-14T02:01:18.981Z,4.00
2022-11-14T02:06:22.567Z,4.08
2022-11-14T02:11:24.058Z,3.78
2022-11-14T02:16:26.882Z,3.68
2022-11-14T02:21:28.437Z,3.74
2022-11-14T02:26:34.318Z,4.01
2022-11-14T02:31:38.304Z,4.04
2022-11-14T02:36:39.763Z,4.26
2022-11-14T02:41:41.275Z,3.90
2022-11-14T02:46:42.751Z,3.95
2022-11-14T02:51:44.165Z,3.99
2022-11-14T02:56:45.644Z,3.86
2022-11-14T03:01:47.126Z,4.05
2022-11-14T03:06:48.802Z,3.91
2022-11-14T03:11:50.345Z,4.00
2022-11-14T03:16:54.462Z,4.20
2022-11-14T03:21:55.952Z,4.37
2022-11-14T03:26:57.498Z,4.49
2022-11-14T03:31:58.985Z,4.44
2022-11-14T03:37:00.669Z,4.53
2022-11-14T03:42:02.143Z,4.46
2022-11-14T03:47:03.523Z,4.58
2022-11-14T03:52:05.159Z,4.85
2022-11-14T03:57:06.745Z,5.21
2022-11-14T04:02:08.192Z,4.97
2022-11-14T04:07:09.702Z,5.00
2022-11-14T04:12:15.478Z,5.09
2022-11-14T04:17:17.501Z,5.19
2022-11-14T04:22:18.953Z,5.08
2022-11-14T04:27:20.481Z,5.09
2022-11-14T04:32:21.946Z,5.09
2022-11-14T04:37:23.576Z,5.41
2022-11-14T04:42:25.369Z,5.26
2022-11-14T04:47:26.830Z,5.33
2022-11-14T04:52:28.530Z,5.56
2022-11-14T04:57:29.962Z,5.73
2022-11-14T05:02:31.989Z,5.64
2022-11-14T05:07:33.578Z,5.76
2022-11-14T05:12:35.377Z,5.83
2022-11-14T05:17:36.993Z,6.00
2022-11-14T05:22:38.623Z,6.00
2022-11-14T05:27:40.062Z,6.10
2022-11-14T05:32:41.763Z,5.91
2022-11-14T05:37:43.219Z,6.06
2022-11-14T05:42:44.982Z,6.11
2022-11-14T05:47:46.458Z,6.29
2022-11-14T05:52:47.934Z,6.40
2022-11-14T05:57:49.394Z,6.65
2022-11-14T06:02:54.787Z,6.63
2022-11-14T06:07:57.304Z,6.69
2022-11-14T06:12:58.767Z,6.74
2022-11-14T06:18:03.310Z,6.71
2022-11-14T06:23:04.968Z,6.89
2022-11-14T06:28:06.422Z,6.95
2022-11-14T06:33:07.982Z,7.00
2022-11-14T06:38:09.400Z,7.02
2022-11-14T06:43:10.833Z,7.04
2022-11-14T06:48:12.369Z,7.04
2022-11-14T06:53:13.836Z,7.09
2022-11-14T06:58:15.253Z,7.14
2022-11-14T07:03:16.839Z,7.17
2022-11-14T07:08:21.058Z,7.19
2022-11-14T07:13:22.822Z,7.30
2022-11-14T07:18:24.635Z,7.29
2022-11-14T07:23:26.162Z,7.35
2022-11-14T07:28:27.727Z,7.28
2022-11-14T07:33:31.041Z,7.31
2022-11-14T07:38:34.017Z,7.38
2022-11-14T07:43:35.456Z,7.30
2022-11-14T07:48:37.704Z,7.38
2022-11-14T07:53:39.214Z,7.38
2022-11-14T07:58:41.571Z,7.40
2022-11-14T08:03:45.903Z,7.47
2022-11-14T08:08:47.813Z,7.44
2022-11-14T08:13:49.218Z,7.45
2022-11-14T08:18:50.770Z,7.53
2022-11-14T08:23:53.121Z,7.63
2022-11-14T08:28:54.737Z,7.77
2022-11-14T08:33:56.183Z,7.84
2022-11-14T08:39:01.759Z,7.93
2022-11-14T08:44:03.677Z,7.86
2022-11-14T08:49:05.344Z,7.84
2022-11-14T08:54:06.875Z,7.97
2022-11-14T08:59:08.323Z,7.90
2022-11-14T09:04:09.997Z,7.84
2022-11-14T09:09:11.905Z,7.93
2022-11-14T09:14:13.322Z,7.60
2022-11-14T09:19:14.801Z,7.34
2022-11-14T09:24:16.281Z,7.70
2022-11-14T09:29:17.957Z,7.28
2022-11-14T09:34:19.563Z,7.16
2022-11-14T09:39:21.082Z,7.38
2022-11-14T09:44:36.686Z,7.40
2022-11-14T09:49:46.293Z,7.34
2022-11-14T09:55:01.162Z,7.56
2022-11-14T10:00:04.113Z,7.44
2022-11-14T10:05:44.506Z,7.83
2022-11-14T10:10:56.678Z,7.89
2022-11-14T10:16:30.987Z,7.91
2022-11-14T10:22:00.952Z,7.67
2022-11-14T10:27:04.567Z,7.91
2022-11-14T10:32:08.736Z,7.97
2022-11-14T10:37:29.815Z,8.16
2022-11-14T10:42:36.997Z,7.62
2022-11-14T10:47:43.566Z,7.62
2022-11-14T10:52:46.172Z,8.00
2022-11-14T10:57:48.055Z,7.65
2022-11-14T11:02:55.339Z,7.84
2022-11-14T11:08:15.048Z,7.49
2022-11-14T11:13:35.042Z,7.89
2022-11-14T11:18:37.426Z,8.08
2022-11-14T11:24:08.775Z,8.13
2022-11-14T11:29:10.169Z,8.14
2022-11-14T11:34:11.715Z,8.46
2022-11-14T11:39:30.134Z,8.76
2022-11-14T11:44:53.641Z,8.76
2022-11-14T11:49:56.485Z,8.74
2022-11-14T11:55:09.680Z,8.63
2022-11-14T12:00:22.325Z,8.73
2022-11-14T12:05:32.253Z,8.64
2022-11-14T12:10:40.580Z,8.59
2022-11-14T12:15:57.318Z,8.64
2022-11-14T12:21:26.472Z,8.56
2022-11-14T12:26:41.901Z,8.80
2022-11-14T12:31:44.024Z,8.67
2022-11-14T12:36:45.543Z,8.62
2022-11-14T12:41:47.210Z,8.38
2022-11-14T12:47:07.051Z,8.51
2022-11-14T12:52:40.330Z,8.74
2022-11-14T12:57:46.899Z,9.31
2022-11-14T13:02:57.461Z,9.30
2022-11-14T13:08:18.499Z,9.41
2022-11-14T13:13:20.275Z,9.47
2022-11-14T13:18:25.007Z,9.53
2022-11-14T13:23:26.449Z,9.35
2022-11-14T13:28:48.991Z,9.36
2022-11-14T13:33:56.629Z,9.15
2022-11-14T13:39:09.996Z,9.28
2022-11-14T13:44:32.809Z,9.32
2022-11-14T13:50:00.212Z,9.38
2022-11-14T13:55:02.476Z,9.45
2022-11-14T14:00:19.553Z,9.51
2022-11-14T14:05:39.606Z,9.45
2022-11-14T14:10:59.829Z,8.93
2022-11-14T14:16:07.417Z,9.33
2022-11-14T14:21:21.880Z,9.33
2022-11-14T14:26:38.289Z,9.34
2022-11-14T14:31:41.966Z,9.32
2022-11-14T14:36:50.731Z,9.36
2022-11-14T14:41:58.022Z,9.35
2022-11-14T14:47:14.838Z,9.33
2022-11-14T14:52:21.814Z,9.34
2022-11-14T14:57:23.682Z,9.36
2022-11-14T15:02:25.969Z,9.39
2022-11-14T15:07:29.942Z,9.37
2022-11-14T15:12:32.329Z,9.40
2022-11-14T15:17:35.946Z,9.46
2022-11-14T15:22:37.546Z,9.53
2022-11-14T15:28:19.751Z,9.55
2022-11-14T15:33:33.794Z,9.50
2022-11-14T15:38:44.656Z,9.49
2022-11-14T15:43:47.615Z,9.46
2022-11-14T15:49:09.360Z,9.54
2022-11-14T15:54:24.755Z,9.54
2022-11-14T15:59:27.629Z,9.58
2022-11-14T16:04:32.773Z,9.57
2022-11-14T16:09:34.763Z,9.49
2022-11-14T16:14:36.279Z,9.45
2022-11-14T16:19:37.752Z,9.43
2022-11-14T16:24:39.469Z,9.44
2022-11-14T16:29:40.909Z,9.47
2022-11-14T16:34:42.461Z,9.33
2022-11-14T16:39:43.987Z,9.37
2022-11-14T16:44:50.462Z,9.46
2022-11-14T16:49:52.356Z,9.45
2022-11-14T16:54:53.886Z,9.52
2022-11-14T16:59:55.342Z,9.50
2022-11-14T17:04:56.728Z,9.51
2022-11-14T17:09:58.288Z,9.53
2022-11-14T17:14:59.961Z,9.52
2022-11-14T17:20:01.463Z,9.48
2022-11-14T17:25:03.031Z,9.41
2022-11-14T17:30:04.961Z,9.52
2022-11-14T17:35:06.997Z,9.60
2022-11-14T17:40:15.166Z,9.55
2022-11-14T17:45:17.051Z,9.41
2022-11-14T17:50:18.637Z,9.41
2022-11-14T17:55:20.079Z,9.42
2022-11-14T18:00:21.670Z,9.34
2022-11-14T18:05:23.532Z,9.32
2022-11-14T18:10:25.037Z,9.40
2022-11-14T18:15:28.113Z,9.46
2022-11-14T18:20:30.141Z,9.52
2022-11-14T18:25:31.677Z,9.47
2022-11-14T18:30:41.339Z,9.52
2022-11-14T18:35:43.337Z,9.65
2022-11-14T18:40:44.781Z,9.77
2022-11-14T18:45:46.211Z,9.81
2022-11-14T18:50:47.750Z,9.81
2022-11-14T18:55:49.182Z,9.81
2022-11-14T19:00:50.729Z,9.84
2022-11-14T19:05:52.312Z,9.85
2022-11-14T19:10:53.722Z,9.92
2022-11-14T19:15:55.295Z,10.03
2022-11-14T19:21:02.057Z,9.87
2022-11-14T19:26:03.463Z,9.80
2022-11-14T19:31:06.210Z,9.85
2022-11-14T19:36:11.054Z,9.70
2022-11-14T19:41:18.840Z,9.67
2022-11-14T19:46:20.443Z,9.78
2022-11-14T19:51:21.967Z,9.91
2022-11-14T19:56:24.626Z,9.78
2022-11-14T20:01:27.610Z,9.75
2022-11-14T20:06:32.427Z,9.75
2022-11-14T20:11:33.962Z,9.84
2022-11-14T20:16:36.858Z,9.97
2022-11-14T20:21:38.382Z,10.15
2022-11-14T20:26:39.796Z,10.12
2022-11-14T20:31:42.529Z,10.10
2022-11-14T20:37:09.412Z,10.02
2022-11-14T20:42:05.652Z,10.23
2022-11-14T20:47:10.785Z,10.33
2022-11-14T20:52:12.832Z,10.31
2022-11-14T20:57:14.281Z,10.32
2022-11-14T21:02:15.836Z,10.35
2022-11-14T21:07:17.364Z,10.24
2022-11-14T21:12:18.870Z,10.39
2022-11-14T21:17:20.384Z,10.51
2022-11-14T21:22:21.817Z,10.58
2022-11-14T21:27:23.261Z,10.63
2022-11-14T21:32:24.729Z,10.57
2022-11-14T21:37:26.279Z,10.63
2022-11-14T21:42:27.767Z,10.56
2022-11-14T21:47:29.219Z,10.55
2022-11-14T21:52:32.646Z,10.54
2022-11-14T21:57:34.110Z,10.62
2022-11-14T22:02:35.574Z,10.65
2022-11-14T22:07:40.320Z,10.77
2022-11-14T22:12:41.798Z,10.87
2022-11-14T22:17:43.346Z,10.83
2022-11-14T22:22:44.858Z,10.83
2022-11-14T22:27:46.348Z,10.85
2022-11-14T22:32:47.844Z,10.85
2022-11-14T22:37:49.287Z,10.92
2022-11-14T22:42:50.786Z,10.90
2022-11-14T22:47:57.228Z,10.83
2022-11-14T22:52:58.667Z,10.88
2022-11-14T22:58:00.427Z,10.99
2022-11-14T23:03:02.318Z,10.76
2022-11-14T23:08:06.923Z,10.96
2022-11-14T23:13:08.791Z,10.77
2022-11-14T23:18:10.186Z,11.00
2022-11-14T23:23:11.771Z,10.94
2022-11-14T23:28:13.204Z,10.95
2022-11-14T23:33:14.709Z,10.98
2022-11-14T23:38:16.365Z,11.03
2022-11-14T23:43:17.853Z,10.97
2022-11-14T23:48:20.950Z,10.78
2022-11-14T23:53:23.226Z,10.95
2022-11-14T23:58:26.706Z,10.85
